sensor_id;sensor_type;location;lat;lon;timestamp;temperature;humidity
41304;DHT22;51002;51.462;7.218;2023-04-25T00:01:05;8.50;79.30
41304;DHT22;51002;51.462;7.218;2023-04-25T00:03:31;8.50;78.90
41304;DHT22;51002;51.462;7.218;2023-04-25T00:05:57;8.60;78.30
41304;DHT22;51002;51.462;7.218;2023-04-25T00:08:24;8.60;78.30
41304;DHT22;51002;51.462;7.218;2023-04-25T00:10:50;8.70;77.90
41304;DHT22;51002;51.462;7.218;2023-04-25T00:13:18;8.70;77.20
41304;DHT22;51002;51.462;7.218;2023-04-25T00:15:44;8.50;77.00
41304;DHT22;51002;51.462;7.218;2023-04-25T00:18:13;8.60;78.10
41304;DHT22;51002;51.462;7.218;2023-04-25T00:20:39;8.60;78.50
41304;DHT22;51002;51.462;7.218;2023-04-25T00:23:04;8.70;76.30
41304;DHT22;51002;51.462;7.218;2023-04-25T00:25:30;8.70;76.80
41304;DHT22;51002;51.462;7.218;2023-04-25T00:27:55;8.60;78.20
41304;DHT22;51002;51.462;7.218;2023-04-25T00:30:21;8.70;77.70
41304;DHT22;51002;51.462;7.218;2023-04-25T00:32:46;8.70;77.60
41304;DHT22;51002;51.462;7.218;2023-04-25T00:35:15;8.70;77.10
41304;DHT22;51002;51.462;7.218;2023-04-25T00:37:43;8.70;79.00
41304;DHT22;51002;51.462;7.218;2023-04-25T00:40:11;8.60;76.10
41304;DHT22;51002;51.462;7.218;2023-04-25T00:42:37;8.70;77.90
41304;DHT22;51002;51.462;7.218;2023-04-25T00:45:04;8.40;76.10
41304;DHT22;51002;51.462;7.218;2023-04-25T00:47:30;8.60;77.10
41304;DHT22;51002;51.462;7.218;2023-04-25T00:49:56;8.70;78.80
41304;DHT22;51002;51.462;7.218;2023-04-25T00:52:22;8.60;76.60
41304;DHT22;51002;51.462;7.218;2023-04-25T00:54:47;8.70;79.30
41304;DHT22;51002;51.462;7.218;2023-04-25T00:57:13;8.60;77.70
41304;DHT22;51002;51.462;7.218;2023-04-25T00:59:39;8.60;78.40
41304;DHT22;51002;51.462;7.218;2023-04-25T01:02:08;8.70;78.90
41304;DHT22;51002;51.462;7.218;2023-04-25T01:04:36;8.70;76.70
41304;DHT22;51002;51.462;7.218;2023-04-25T01:07:02;8.60;77.30
41304;DHT22;51002;51.462;7.218;2023-04-25T01:09:28;8.70;80.00
41304;DHT22;51002;51.462;7.218;2023-04-25T01:11:57;8.70;78.40
41304;DHT22;51002;51.462;7.218;2023-04-25T01:14:23;8.60;78.20
41304;DHT22;51002;51.462;7.218;2023-04-25T01:16:49;8.50;79.00
41304;DHT22;51002;51.462;7.218;2023-04-25T01:19:16;8.70;79.10
41304;DHT22;51002;51.462;7.218;2023-04-25T01:21:45;8.70;80.70
41304;DHT22;51002;51.462;7.218;2023-04-25T01:24:10;8.80;80.70
41304;DHT22;51002;51.462;7.218;2023-04-25T01:26:38;8.70;79.20
41304;DHT22;51002;51.462;7.218;2023-04-25T01:29:05;8.70;80.70
41304;DHT22;51002;51.462;7.218;2023-04-25T01:31:33;8.70;79.40
41304;DHT22;51002;51.462;7.218;2023-04-25T01:34:00;8.80;79.40
41304;DHT22;51002;51.462;7.218;2023-04-25T01:36:29;8.60;80.40
41304;DHT22;51002;51.462;7.218;2023-04-25T01:38:54;8.80;82.00
41304;DHT22;51002;51.462;7.218;2023-04-25T01:41:20;8.70;80.50
41304;DHT22;51002;51.462;7.218;2023-04-25T01:43:48;8.80;81.20
41304;DHT22;51002;51.462;7.218;2023-04-25T01:46:13;8.80;79.70
41304;DHT22;51002;51.462;7.218;2023-04-25T01:48:39;8.90;80.70
41304;DHT22;51002;51.462;7.218;2023-04-25T01:51:04;8.70;81.00
41304;DHT22;51002;51.462;7.218;2023-04-25T01:53:30;8.80;80.50
41304;DHT22;51002;51.462;7.218;2023-04-25T01:55:55;8.80;82.50
41304;DHT22;51002;51.462;7.218;2023-04-25T01:58:21;8.90;79.60
41304;DHT22;51002;51.462;7.218;2023-04-25T02:00:46;8.80;79.50
41304;DHT22;51002;51.462;7.218;2023-04-25T02:03:12;8.70;79.90
41304;DHT22;51002;51.462;7.218;2023-04-25T02:05:40;8.70;78.40
41304;DHT22;51002;51.462;7.218;2023-04-25T02:08:06;8.90;80.60
41304;DHT22;51002;51.462;7.218;2023-04-25T02:10:32;8.80;80.10
41304;DHT22;51002;51.462;7.218;2023-04-25T02:12:57;8.80;79.00
41304;DHT22;51002;51.462;7.218;2023-04-25T02:15:23;8.70;79.40
41304;DHT22;51002;51.462;7.218;2023-04-25T02:17:49;8.50;79.60
41304;DHT22;51002;51.462;7.218;2023-04-25T02:20:18;8.70;79.80
41304;DHT22;51002;51.462;7.218;2023-04-25T02:22:45;8.60;79.10
41304;DHT22;51002;51.462;7.218;2023-04-25T02:25:10;8.40;80.10
41304;DHT22;51002;51.462;7.218;2023-04-25T02:27:36;8.70;81.80
41304;DHT22;51002;51.462;7.218;2023-04-25T02:30:02;8.80;80.70
41304;DHT22;51002;51.462;7.218;2023-04-25T02:32:30;8.70;80.70
41304;DHT22;51002;51.462;7.218;2023-04-25T02:34:55;8.70;80.20
41304;DHT22;51002;51.462;7.218;2023-04-25T02:37:23;8.70;81.00
41304;DHT22;51002;51.462;7.218;2023-04-25T02:39:49;8.60;79.20
41304;DHT22;51002;51.462;7.218;2023-04-25T02:42:17;8.70;81.30
41304;DHT22;51002;51.462;7.218;2023-04-25T02:44:42;8.70;80.50
41304;DHT22;51002;51.462;7.218;2023-04-25T02:47:08;8.60;81.90
41304;DHT22;51002;51.462;7.218;2023-04-25T02:49:36;8.70;81.00
41304;DHT22;51002;51.462;7.218;2023-04-25T02:52:01;8.50;80.40
41304;DHT22;51002;51.462;7.218;2023-04-25T02:54:27;8.60;82.00
41304;DHT22;51002;51.462;7.218;2023-04-25T02:56:52;8.70;80.80
41304;DHT22;51002;51.462;7.218;2023-04-25T02:59:18;8.70;81.00
41304;DHT22;51002;51.462;7.218;2023-04-25T03:01:43;8.50;80.70
41304;DHT22;51002;51.462;7.218;2023-04-25T03:04:11;8.40;82.60
41304;DHT22;51002;51.462;7.218;2023-04-25T03:06:39;8.50;83.70
41304;DHT22;51002;51.462;7.218;2023-04-25T03:09:04;8.60;83.70
41304;DHT22;51002;51.462;7.218;2023-04-25T03:11:30;8.60;84.10
41304;DHT22;51002;51.462;7.218;2023-04-25T03:13:55;8.60;83.20
41304;DHT22;51002;51.462;7.218;2023-04-25T03:16:23;8.50;82.70
41304;DHT22;51002;51.462;7.218;2023-04-25T03:18:49;8.70;84.10
41304;DHT22;51002;51.462;7.218;2023-04-25T03:21:16;8.90;84.00
41304;DHT22;51002;51.462;7.218;2023-04-25T03:23:41;8.80;83.80
41304;DHT22;51002;51.462;7.218;2023-04-25T03:26:07;8.70;82.80
41304;DHT22;51002;51.462;7.218;2023-04-25T03:28:32;8.80;83.80
41304;DHT22;51002;51.462;7.218;2023-04-25T03:30:58;8.70;82.40
41304;DHT22;51002;51.462;7.218;2023-04-25T03:33:23;8.70;81.50
41304;DHT22;51002;51.462;7.218;2023-04-25T03:35:51;8.60;82.90
41304;DHT22;51002;51.462;7.218;2023-04-25T03:38:17;8.70;82.30
41304;DHT22;51002;51.462;7.218;2023-04-25T03:40:45;8.70;82.00
41304;DHT22;51002;51.462;7.218;2023-04-25T03:43:10;8.70;82.80
41304;DHT22;51002;51.462;7.218;2023-04-25T03:45:36;8.50;81.30
41304;DHT22;51002;51.462;7.218;2023-04-25T03:48:02;8.50;82.00
41304;DHT22;51002;51.462;7.218;2023-04-25T03:50:27;8.70;83.00
41304;DHT22;51002;51.462;7.218;2023-04-25T03:52:55;8.70;81.20
41304;DHT22;51002;51.462;7.218;2023-04-25T03:55:20;8.70;81.80
41304;DHT22;51002;51.462;7.218;2023-04-25T03:57:46;8.40;80.70
41304;DHT22;51002;51.462;7.218;2023-04-25T04:00:12;8.50;81.40
41304;DHT22;51002;51.462;7.218;2023-04-25T04:02:40;8.70;82.90
41304;DHT22;51002;51.462;7.218;2023-04-25T04:05:06;8.60;80.80
41304;DHT22;51002;51.462;7.218;2023-04-25T04:07:34;8.70;83.00
41304;DHT22;51002;51.462;7.218;2023-04-25T04:10:05;8.70;82.30
41304;DHT22;51002;51.462;7.218;2023-04-25T04:12:31;8.70;81.40
41304;DHT22;51002;51.462;7.218;2023-04-25T04:14:56;8.60;81.80
41304;DHT22;51002;51.462;7.218;2023-04-25T04:17:24;8.20;79.00
41304;DHT22;51002;51.462;7.218;2023-04-25T04:19:50;8.30;78.90
41304;DHT22;51002;51.462;7.218;2023-04-25T04:22:18;8.20;79.90
41304;DHT22;51002;51.462;7.218;2023-04-25T04:24:47;8.20;77.40
41304;DHT22;51002;51.462;7.218;2023-04-25T04:27:17;8.10;77.10
41304;DHT22;51002;51.462;7.218;2023-04-25T04:29:43;7.90;77.30
41304;DHT22;51002;51.462;7.218;2023-04-25T04:32:09;7.80;84.90
41304;DHT22;51002;51.462;7.218;2023-04-25T04:34:34;7.90;86.70
41304;DHT22;51002;51.462;7.218;2023-04-25T04:37:00;7.90;87.10
41304;DHT22;51002;51.462;7.218;2023-04-25T04:39:25;7.80;87.80
41304;DHT22;51002;51.462;7.218;2023-04-25T04:41:51;7.60;89.50
41304;DHT22;51002;51.462;7.218;2023-04-25T04:44:16;7.70;90.00
41304;DHT22;51002;51.462;7.218;2023-04-25T04:46:42;7.70;90.70
41304;DHT22;51002;51.462;7.218;2023-04-25T04:49:11;7.80;91.70
41304;DHT22;51002;51.462;7.218;2023-04-25T04:51:37;7.80;92.10
41304;DHT22;51002;51.462;7.218;2023-04-25T04:54:03;7.70;92.00
41304;DHT22;51002;51.462;7.218;2023-04-25T04:56:29;7.70;92.30
41304;DHT22;51002;51.462;7.218;2023-04-25T04:58:56;7.80;92.60
41304;DHT22;51002;51.462;7.218;2023-04-25T05:01:21;7.80;92.20
41304;DHT22;51002;51.462;7.218;2023-04-25T05:03:50;7.90;92.40
41304;DHT22;51002;51.462;7.218;2023-04-25T05:06:18;7.90;92.30
41304;DHT22;51002;51.462;7.218;2023-04-25T05:08:43;8.00;92.50
41304;DHT22;51002;51.462;7.218;2023-04-25T05:11:09;7.80;91.80
41304;DHT22;51002;51.462;7.218;2023-04-25T05:13:37;7.90;91.50
41304;DHT22;51002;51.462;7.218;2023-04-25T05:16:05;7.90;91.50
41304;DHT22;51002;51.462;7.218;2023-04-25T05:18:33;8.10;91.00
41304;DHT22;51002;51.462;7.218;2023-04-25T05:20:59;8.10;90.50
41304;DHT22;51002;51.462;7.218;2023-04-25T05:23:26;8.00;89.80
41304;DHT22;51002;51.462;7.218;2023-04-25T05:25:53;8.20;90.20
41304;DHT22;51002;51.462;7.218;2023-04-25T05:28:20;8.20;89.60
41304;DHT22;51002;51.462;7.218;2023-04-25T05:30:46;8.30;90.00
41304;DHT22;51002;51.462;7.218;2023-04-25T05:33:15;8.20;88.70
41304;DHT22;51002;51.462;7.218;2023-04-25T05:35:40;8.20;89.20
41304;DHT22;51002;51.462;7.218;2023-04-25T05:38:06;8.40;88.30
41304;DHT22;51002;51.462;7.218;2023-04-25T05:40:31;8.20;84.90
41304;DHT22;51002;51.462;7.218;2023-04-25T05:42:57;8.10;85.30
41304;DHT22;51002;51.462;7.218;2023-04-25T05:45:22;8.20;84.80
41304;DHT22;51002;51.462;7.218;2023-04-25T05:47:48;8.40;85.70
41304;DHT22;51002;51.462;7.218;2023-04-25T05:50:13;8.30;83.80
41304;DHT22;51002;51.462;7.218;2023-04-25T05:52:39;8.50;86.40
41304;DHT22;51002;51.462;7.218;2023-04-25T05:55:05;8.60;83.90
41304;DHT22;51002;51.462;7.218;2023-04-25T05:57:31;8.60;84.60
41304;DHT22;51002;51.462;7.218;2023-04-25T05:59:56;8.90;86.10
41304;DHT22;51002;51.462;7.218;2023-04-25T06:02:22;8.90;83.50
41304;DHT22;51002;51.462;7.218;2023-04-25T06:04:50;8.90;83.90
41304;DHT22;51002;51.462;7.218;2023-04-25T06:07:16;9.00;84.60
41304;DHT22;51002;51.462;7.218;2023-04-25T06:09:42;8.90;83.60
41304;DHT22;51002;51.462;7.218;2023-04-25T06:12:08;9.00;83.60
41304;DHT22;51002;51.462;7.218;2023-04-25T06:14:34;9.20;83.50
41304;DHT22;51002;51.462;7.218;2023-04-25T06:16:59;9.20;82.60
41304;DHT22;51002;51.462;7.218;2023-04-25T06:19:32;9.30;83.20
41304;DHT22;51002;51.462;7.218;2023-04-25T06:22:00;9.20;82.50
41304;DHT22;51002;51.462;7.218;2023-04-25T06:24:25;9.00;82.60
41304;DHT22;51002;51.462;7.218;2023-04-25T06:26:53;9.10;81.00
41304;DHT22;51002;51.462;7.218;2023-04-25T06:29:19;9.30;82.70
41304;DHT22;51002;51.462;7.218;2023-04-25T06:31:45;9.20;82.30
41304;DHT22;51002;51.462;7.218;2023-04-25T06:34:10;9.20;82.50
41304;DHT22;51002;51.462;7.218;2023-04-25T06:36:41;9.10;80.70
41304;DHT22;51002;51.462;7.218;2023-04-25T06:39:06;9.20;80.70
41304;DHT22;51002;51.462;7.218;2023-04-25T06:41:32;9.40;79.20
41304;DHT22;51002;51.462;7.218;2023-04-25T06:43:57;9.70;80.60
41304;DHT22;51002;51.462;7.218;2023-04-25T06:46:23;9.70;79.70
41304;DHT22;51002;51.462;7.218;2023-04-25T06:48:48;9.50;80.00
41304;DHT22;51002;51.462;7.218;2023-04-25T06:51:16;9.50;78.40
41304;DHT22;51002;51.462;7.218;2023-04-25T06:53:42;10.00;81.90
41304;DHT22;51002;51.462;7.218;2023-04-25T06:56:07;10.00;81.70
41304;DHT22;51002;51.462;7.218;2023-04-25T06:58:33;9.90;78.40
41304;DHT22;51002;51.462;7.218;2023-04-25T07:00:58;10.10;82.00
41304;DHT22;51002;51.462;7.218;2023-04-25T07:03:26;9.90;79.40
41304;DHT22;51002;51.462;7.218;2023-04-25T07:05:51;10.00;76.40
41304;DHT22;51002;51.462;7.218;2023-04-25T07:08:19;9.90;76.80
41304;DHT22;51002;51.462;7.218;2023-04-25T07:10:49;9.90;77.80
41304;DHT22;51002;51.462;7.218;2023-04-25T07:13:14;9.80;78.80
41304;DHT22;51002;51.462;7.218;2023-04-25T07:15:40;9.70;76.10
41304;DHT22;51002;51.462;7.218;2023-04-25T07:18:06;9.60;78.80
41304;DHT22;51002;51.462;7.218;2023-04-25T07:20:31;9.70;76.70
41304;DHT22;51002;51.462;7.218;2023-04-25T07:22:58;9.80;76.30
41304;DHT22;51002;51.462;7.218;2023-04-25T07:25:23;9.80;76.00
41304;DHT22;51002;51.462;7.218;2023-04-25T07:27:49;9.90;74.80
41304;DHT22;51002;51.462;7.218;2023-04-25T07:30:14;9.90;77.30
41304;DHT22;51002;51.462;7.218;2023-04-25T07:32:42;10.10;75.90
41304;DHT22;51002;51.462;7.218;2023-04-25T07:35:10;10.20;75.20
41304;DHT22;51002;51.462;7.218;2023-04-25T07:37:36;10.10;72.30
41304;DHT22;51002;51.462;7.218;2023-04-25T07:40:02;10.10;73.90
41304;DHT22;51002;51.462;7.218;2023-04-25T07:42:32;10.30;74.20
41304;DHT22;51002;51.462;7.218;2023-04-25T07:44:58;10.20;73.60
41304;DHT22;51002;51.462;7.218;2023-04-25T07:47:23;10.40;75.20
41304;DHT22;51002;51.462;7.218;2023-04-25T07:49:51;10.60;74.60
41304;DHT22;51002;51.462;7.218;2023-04-25T07:52:17;10.40;72.20
41304;DHT22;51002;51.462;7.218;2023-04-25T07:54:42;10.50;74.00
41304;DHT22;51002;51.462;7.218;2023-04-25T07:57:08;10.70;69.40
41304;DHT22;51002;51.462;7.218;2023-04-25T07:59:33;10.80;70.80
41304;DHT22;51002;51.462;7.218;2023-04-25T08:01:59;10.90;70.80
41304;DHT22;51002;51.462;7.218;2023-04-25T08:04:28;11.00;68.90
41304;DHT22;51002;51.462;7.218;2023-04-25T08:06:53;10.90;68.80
41304;DHT22;51002;51.462;7.218;2023-04-25T08:09:19;11.40;67.10
41304;DHT22;51002;51.462;7.218;2023-04-25T08:11:45;11.50;65.80
41304;DHT22;51002;51.462;7.218;2023-04-25T08:14:13;11.60;68.70
41304;DHT22;51002;51.462;7.218;2023-04-25T08:16:39;11.30;65.80
41304;DHT22;51002;51.462;7.218;2023-04-25T08:19:04;11.30;63.90
41304;DHT22;51002;51.462;7.218;2023-04-25T08:21:30;11.30;63.80
41304;DHT22;51002;51.462;7.218;2023-04-25T08:23:58;11.60;66.70
41304;DHT22;51002;51.462;7.218;2023-04-25T08:26:26;11.30;63.30
41304;DHT22;51002;51.462;7.218;2023-04-25T08:28:52;11.60;61.70
41304;DHT22;51002;51.462;7.218;2023-04-25T08:31:20;11.90;61.80
41304;DHT22;51002;51.462;7.218;2023-04-25T08:33:48;12.00;65.60
41304;DHT22;51002;51.462;7.218;2023-04-25T08:36:17;12.00;64.30
41304;DHT22;51002;51.462;7.218;2023-04-25T08:38:45;11.80;63.50
41304;DHT22;51002;51.462;7.218;2023-04-25T08:41:11;11.90;65.00
41304;DHT22;51002;51.462;7.218;2023-04-25T08:43:38;11.70;65.60
41304;DHT22;51002;51.462;7.218;2023-04-25T08:46:07;11.50;62.60
41304;DHT22;51002;51.462;7.218;2023-04-25T08:48:35;11.50;64.30
41304;DHT22;51002;51.462;7.218;2023-04-25T08:51:03;11.50;60.50
41304;DHT22;51002;51.462;7.218;2023-04-25T08:53:32;11.80;63.90
41304;DHT22;51002;51.462;7.218;2023-04-25T08:55:58;12.00;61.90
41304;DHT22;51002;51.462;7.218;2023-04-25T08:58:27;12.00;60.60
41304;DHT22;51002;51.462;7.218;2023-04-25T09:00:55;12.20;60.40
41304;DHT22;51002;51.462;7.218;2023-04-25T09:03:20;13.20;62.00
41304;DHT22;51002;51.462;7.218;2023-04-25T09:05:46;13.40;53.00
41304;DHT22;51002;51.462;7.218;2023-04-25T09:08:11;14.60;53.90
41304;DHT22;51002;51.462;7.218;2023-04-25T09:10:37;14.80;52.00
41304;DHT22;51002;51.462;7.218;2023-04-25T09:13:06;14.50;50.10
41304;DHT22;51002;51.462;7.218;2023-04-25T09:15:56;14.80;52.30
41304;DHT22;51002;51.462;7.218;2023-04-25T09:20:48;14.30;54.70
41304;DHT22;51002;51.462;7.218;2023-04-25T09:23:14;14.40;54.80
41304;DHT22;51002;51.462;7.218;2023-04-25T09:25:42;14.60;49.10
41304;DHT22;51002;51.462;7.218;2023-04-25T09:28:11;15.00;52.90
41304;DHT22;51002;51.462;7.218;2023-04-25T09:30:36;14.50;47.90
41304;DHT22;51002;51.462;7.218;2023-04-25T09:33:08;14.20;52.50
41304;DHT22;51002;51.462;7.218;2023-04-25T09:35:40;14.00;51.10
41304;DHT22;51002;51.462;7.218;2023-04-25T09:38:16;14.20;52.70
41304;DHT22;51002;51.462;7.218;2023-04-25T09:40:46;13.80;48.50
41304;DHT22;51002;51.462;7.218;2023-04-25T09:43:19;14.00;50.20
41304;DHT22;51002;51.462;7.218;2023-04-25T09:45:46;13.80;51.80
41304;DHT22;51002;51.462;7.218;2023-04-25T09:48:16;13.80;50.80
41304;DHT22;51002;51.462;7.218;2023-04-25T09:50:42;14.00;51.00
41304;DHT22;51002;51.462;7.218;2023-04-25T09:53:10;13.90;50.80
41304;DHT22;51002;51.462;7.218;2023-04-25T09:55:35;13.70;47.50
41304;DHT22;51002;51.462;7.218;2023-04-25T09:58:04;14.00;46.90
41304;DHT22;51002;51.462;7.218;2023-04-25T10:00:33;14.40;50.40
41304;DHT22;51002;51.462;7.218;2023-04-25T10:03:01;14.30;48.90
41304;DHT22;51002;51.462;7.218;2023-04-25T10:05:29;14.10;48.10
41304;DHT22;51002;51.462;7.218;2023-04-25T10:07:55;13.80;48.20
41304;DHT22;51002;51.462;7.218;2023-04-25T10:10:26;13.80;46.90
41304;DHT22;51002;51.462;7.218;2023-04-25T10:12:54;13.60;47.30
41304;DHT22;51002;51.462;7.218;2023-04-25T10:15:22;14.20;48.90
41304;DHT22;51002;51.462;7.218;2023-04-25T10:17:49;13.80;45.90
41304;DHT22;51002;51.462;7.218;2023-04-25T10:20:15;14.50;47.50
41304;DHT22;51002;51.462;7.218;2023-04-25T10:22:41;14.20;43.90
41304;DHT22;51002;51.462;7.218;2023-04-25T10:25:07;14.30;43.90
41304;DHT22;51002;51.462;7.218;2023-04-25T10:27:34;14.20;49.60
41304;DHT22;51002;51.462;7.218;2023-04-25T10:30:00;14.20;47.80
41304;DHT22;51002;51.462;7.218;2023-04-25T10:32:25;13.70;44.30
41304;DHT22;51002;51.462;7.218;2023-04-25T10:34:53;13.50;48.80
41304;DHT22;51002;51.462;7.218;2023-04-25T10:37:21;13.40;47.20
41304;DHT22;51002;51.462;7.218;2023-04-25T10:39:49;13.00;49.00
41304;DHT22;51002;51.462;7.218;2023-04-25T10:42:14;12.80;47.00
41304;DHT22;51002;51.462;7.218;2023-04-25T10:44:47;12.80;49.50
41304;DHT22;51002;51.462;7.218;2023-04-25T10:47:34;13.00;47.50
41304;DHT22;51002;51.462;7.218;2023-04-25T10:50:05;13.40;47.80
41304;DHT22;51002;51.462;7.218;2023-04-25T10:52:32;13.50;48.20
41304;DHT22;51002;51.462;7.218;2023-04-25T10:54:58;13.30;46.60
41304;DHT22;51002;51.462;7.218;2023-04-25T11:00:16;13.20;46.30
41304;DHT22;51002;51.462;7.218;2023-04-25T11:02:46;12.90;49.10
41304;DHT22;51002;51.462;7.218;2023-04-25T11:05:16;13.10;50.80
41304;DHT22;51002;51.462;7.218;2023-04-25T11:07:45;12.70;57.20
41304;DHT22;51002;51.462;7.218;2023-04-25T11:10:13;11.80;68.00
41304;DHT22;51002;51.462;7.218;2023-04-25T11:12:39;11.70;67.80
41304;DHT22;51002;51.462;7.218;2023-04-25T11:15:05;11.90;71.60
41304;DHT22;51002;51.462;7.218;2023-04-25T11:17:31;12.00;69.30
41304;DHT22;51002;51.462;7.218;2023-04-25T11:19:57;12.10;66.80
41304;DHT22;51002;51.462;7.218;2023-04-25T11:22:26;11.90;66.50
41304;DHT22;51002;51.462;7.218;2023-04-25T11:24:52;11.90;63.20
41304;DHT22;51002;51.462;7.218;2023-04-25T11:27:17;11.80;65.30
41304;DHT22;51002;51.462;7.218;2023-04-25T11:29:45;11.70;66.40
41304;DHT22;51002;51.462;7.218;2023-04-25T11:32:14;11.60;73.80
41304;DHT22;51002;51.462;7.218;2023-04-25T11:34:42;11.30;75.50
41304;DHT22;51002;51.462;7.218;2023-04-25T11:37:10;11.50;76.80
41304;DHT22;51002;51.462;7.218;2023-04-25T11:39:37;11.30;72.50
41304;DHT22;51002;51.462;7.218;2023-04-25T11:42:05;11.70;69.70
41304;DHT22;51002;51.462;7.218;2023-04-25T11:44:31;12.00;65.50
41304;DHT22;51002;51.462;7.218;2023-04-25T11:46:59;12.20;64.60
41304;DHT22;51002;51.462;7.218;2023-04-25T11:49:24;12.40;61.50
41304;DHT22;51002;51.462;7.218;2023-04-25T11:51:55;12.10;60.30
41304;DHT22;51002;51.462;7.218;2023-04-25T11:54:20;12.20;57.50
41304;DHT22;51002;51.462;7.218;2023-04-25T11:56:47;12.10;56.00
41304;DHT22;51002;51.462;7.218;2023-04-25T11:59:13;11.80;56.80
41304;DHT22;51002;51.462;7.218;2023-04-25T12:06:41;11.80;55.70
41304;DHT22;51002;51.462;7.218;2023-04-25T12:09:08;11.70;52.00
41304;DHT22;51002;51.462;7.218;2023-04-25T12:11:41;11.60;50.00
41304;DHT22;51002;51.462;7.218;2023-04-25T12:14:07;11.50;50.90
41304;DHT22;51002;51.462;7.218;2023-04-25T12:16:45;11.50;50.80
41304;DHT22;51002;51.462;7.218;2023-04-25T12:19:14;11.50;50.00
41304;DHT22;51002;51.462;7.218;2023-04-25T12:21:40;11.70;56.20
41304;DHT22;51002;51.462;7.218;2023-04-25T12:26:47;11.70;49.10
41304;DHT22;51002;51.462;7.218;2023-04-25T12:29:18;12.20;48.60
41304;DHT22;51002;51.462;7.218;2023-04-25T12:31:47;12.20;49.60
41304;DHT22;51002;51.462;7.218;2023-04-25T12:34:14;12.10;49.20
41304;DHT22;51002;51.462;7.218;2023-04-25T12:36:42;12.10;48.40
41304;DHT22;51002;51.462;7.218;2023-04-25T12:39:08;12.30;51.00
41304;DHT22;51002;51.462;7.218;2023-04-25T12:41:34;12.70;48.90
41304;DHT22;51002;51.462;7.218;2023-04-25T12:44:02;12.50;47.50
41304;DHT22;51002;51.462;7.218;2023-04-25T12:46:28;12.50;47.90
41304;DHT22;51002;51.462;7.218;2023-04-25T12:48:56;12.70;49.30
41304;DHT22;51002;51.462;7.218;2023-04-25T12:51:22;12.50;47.00
41304;DHT22;51002;51.462;7.218;2023-04-25T12:53:55;12.50;50.90
41304;DHT22;51002;51.462;7.218;2023-04-25T12:56:20;12.50;49.00
41304;DHT22;51002;51.462;7.218;2023-04-25T12:58:46;12.70;47.80
41304;DHT22;51002;51.462;7.218;2023-04-25T13:01:14;12.50;49.80
41304;DHT22;51002;51.462;7.218;2023-04-25T13:03:39;12.50;50.30
41304;DHT22;51002;51.462;7.218;2023-04-25T13:06:07;12.50;49.50
41304;DHT22;51002;51.462;7.218;2023-04-25T13:08:35;12.40;49.40
41304;DHT22;51002;51.462;7.218;2023-04-25T13:11:02;12.30;51.70
41304;DHT22;51002;51.462;7.218;2023-04-25T13:13:28;12.10;50.30
41304;DHT22;51002;51.462;7.218;2023-04-25T13:15:53;11.90;50.40
41304;DHT22;51002;51.462;7.218;2023-04-25T13:18:24;11.90;52.40
41304;DHT22;51002;51.462;7.218;2023-04-25T13:20:53;11.60;61.30
41304;DHT22;51002;51.462;7.218;2023-04-25T13:23:18;11.60;64.90
41304;DHT22;51002;51.462;7.218;2023-04-25T13:25:46;11.70;67.70
41304;DHT22;51002;51.462;7.218;2023-04-25T13:28:12;11.80;64.50
41304;DHT22;51002;51.462;7.218;2023-04-25T13:30:38;11.90;57.00
41304;DHT22;51002;51.462;7.218;2023-04-25T13:33:04;11.90;60.60
41304;DHT22;51002;51.462;7.218;2023-04-25T13:35:32;12.00;56.70
41304;DHT22;51002;51.462;7.218;2023-04-25T13:38:00;11.80;54.20
41304;DHT22;51002;51.462;7.218;2023-04-25T13:40:26;12.00;55.80
41304;DHT22;51002;51.462;7.218;2023-04-25T13:42:52;11.90;54.20
41304;DHT22;51002;51.462;7.218;2023-04-25T13:45:18;11.90;54.40
41304;DHT22;51002;51.462;7.218;2023-04-25T13:47:43;12.10;54.40
41304;DHT22;51002;51.462;7.218;2023-04-25T13:50:09;12.20;54.90
41304;DHT22;51002;51.462;7.218;2023-04-25T13:52:37;12.20;53.90
41304;DHT22;51002;51.462;7.218;2023-04-25T13:55:04;12.20;52.50
41304;DHT22;51002;51.462;7.218;2023-04-25T13:57:34;12.30;52.30
41304;DHT22;51002;51.462;7.218;2023-04-25T13:59:59;12.30;54.50
41304;DHT22;51002;51.462;7.218;2023-04-25T14:02:30;12.60;56.80
41304;DHT22;51002;51.462;7.218;2023-04-25T14:04:55;12.40;53.60
41304;DHT22;51002;51.462;7.218;2023-04-25T14:07:21;12.10;50.10
41304;DHT22;51002;51.462;7.218;2023-04-25T14:09:46;12.20;54.20
41304;DHT22;51002;51.462;7.218;2023-04-25T14:12:15;12.00;51.00
41304;DHT22;51002;51.462;7.218;2023-04-25T14:14:41;12.20;53.10
41304;DHT22;51002;51.462;7.218;2023-04-25T14:17:07;12.20;50.30
41304;DHT22;51002;51.462;7.218;2023-04-25T14:19:35;12.20;54.00
41304;DHT22;51002;51.462;7.218;2023-04-25T14:22:02;12.20;50.60
41304;DHT22;51002;51.462;7.218;2023-04-25T14:24:28;12.30;54.90
41304;DHT22;51002;51.462;7.218;2023-04-25T14:26:56;12.10;55.40
41304;DHT22;51002;51.462;7.218;2023-04-25T14:29:26;11.80;50.80
41304;DHT22;51002;51.462;7.218;2023-04-25T14:31:52;11.80;50.40
41304;DHT22;51002;51.462;7.218;2023-04-25T14:34:18;11.80;49.70
41304;DHT22;51002;51.462;7.218;2023-04-25T14:36:44;11.80;48.70
41304;DHT22;51002;51.462;7.218;2023-04-25T14:39:09;11.80;49.30
41304;DHT22;51002;51.462;7.218;2023-04-25T14:41:37;11.90;49.80
41304;DHT22;51002;51.462;7.218;2023-04-25T14:44:03;11.90;48.80
41304;DHT22;51002;51.462;7.218;2023-04-25T14:46:28;11.90;47.00
41304;DHT22;51002;51.462;7.218;2023-04-25T14:48:56;12.10;46.40
41304;DHT22;51002;51.462;7.218;2023-04-25T14:51:21;12.20;43.50
41304;DHT22;51002;51.462;7.218;2023-04-25T14:53:51;12.20;43.30
41304;DHT22;51002;51.462;7.218;2023-04-25T14:56:17;12.40;42.90
41304;DHT22;51002;51.462;7.218;2023-04-25T14:58:46;12.60;42.00
41304;DHT22;51002;51.462;7.218;2023-04-25T15:01:12;12.50;44.70
41304;DHT22;51002;51.462;7.218;2023-04-25T15:03:42;12.70;42.90
41304;DHT22;51002;51.462;7.218;2023-04-25T15:06:07;12.60;43.40
41304;DHT22;51002;51.462;7.218;2023-04-25T15:08:33;12.70;43.20
41304;DHT22;51002;51.462;7.218;2023-04-25T15:10:59;12.50;44.00
41304;DHT22;51002;51.462;7.218;2023-04-25T15:13:25;12.60;45.60
41304;DHT22;51002;51.462;7.218;2023-04-25T15:15:51;12.60;48.40
41304;DHT22;51002;51.462;7.218;2023-04-25T15:18:20;12.50;49.50
41304;DHT22;51002;51.462;7.218;2023-04-25T15:20:50;12.50;49.70
41304;DHT22;51002;51.462;7.218;2023-04-25T15:23:16;12.40;49.60
41304;DHT22;51002;51.462;7.218;2023-04-25T15:25:44;12.60;50.00
41304;DHT22;51002;51.462;7.218;2023-04-25T15:28:10;12.60;49.70
41304;DHT22;51002;51.462;7.218;2023-04-25T15:30:39;12.50;49.10
41304;DHT22;51002;51.462;7.218;2023-04-25T15:33:04;12.40;49.50
41304;DHT22;51002;51.462;7.218;2023-04-25T15:35:30;12.60;49.20
41304;DHT22;51002;51.462;7.218;2023-04-25T15:37:55;12.70;49.00
41304;DHT22;51002;51.462;7.218;2023-04-25T15:40:21;12.70;50.00
41304;DHT22;51002;51.462;7.218;2023-04-25T15:42:48;12.60;46.50
41304;DHT22;51002;51.462;7.218;2023-04-25T15:45:18;12.50;47.90
41304;DHT22;51002;51.462;7.218;2023-04-25T15:47:44;12.40;46.50